sensor_id;sensor_type;location;lat;lon;timestamp;P1;durP1;ratioP1;P2;durP2;ratioP2
27778;SDS011;30234;48.090;11.464;2023-09-07T00:01:51;4.43;;;3.05;;
27778;SDS011;30234;48.090;11.464;2023-09-07T00:05:52;5.57;;;2.95;;
27778;SDS011;30234;48.090;11.464;2023-09-07T00:09:53;4.20;;;3.58;;
27778;SDS011;30234;48.090;11.464;2023-09-07T00:13:54;4.70;;;2.83;;
27778;SDS011;30234;48.090;11.464;2023-09-07T00:17:57;6.28;;;3.45;;
27778;SDS011;30234;48.090;11.464;2023-09-07T00:21:58;4.88;;;4.05;;
27778;SDS011;30234;48.090;11.464;2023-09-07T00:25:59;3.67;;;3.25;;
27778;SDS011;30234;48.090;11.464;2023-09-07T00:30:00;2.90;;;2.60;;
27778;SDS011;30234;48.090;11.464;2023-09-07T00:34:03;7.00;;;3.38;;
27778;SDS011;30234;48.090;11.464;2023-09-07T00:38:04;7.07;;;3.15;;
27778;SDS011;30234;48.090;11.464;2023-09-07T00:42:05;3.53;;;2.85;;
27778;SDS011;30234;48.090;11.464;2023-09-07T00:46:06;3.25;;;2.95;;
27778;SDS011;30234;48.090;11.464;2023-09-07T00:50:08;3.38;;;3.08;;
27778;SDS011;30234;48.090;11.464;2023-09-07T00:54:09;6.72;;;3.00;;
27778;SDS011;30234;48.090;11.464;2023-09-07T00:58:13;5.75;;;2.88;;
27778;SDS011;30234;48.090;11.464;2023-09-07T01:02:23;3.55;;;2.90;;
27778;SDS011;30234;48.090;11.464;2023-09-07T01:06:33;3.92;;;2.85;;
27778;SDS011;30234;48.090;11.464;2023-09-07T01:10:44;7.20;;;3.53;;
27778;SDS011;30234;48.090;11.464;2023-09-07T01:14:45;5.07;;;3.35;;
27778;SDS011;30234;48.090;11.464;2023-09-07T01:23:18;2.95;;;2.67;;
27778;SDS011;30234;48.090;11.464;2023-09-07T01:27:20;3.15;;;2.75;;
27778;SDS011;30234;48.090;11.464;2023-09-07T01:31:23;5.65;;;2.80;;
27778;SDS011;30234;48.090;11.464;2023-09-07T01:35:24;9.38;;;3.70;;
27778;SDS011;30234;48.090;11.464;2023-09-07T01:39:27;3.85;;;2.88;;
27778;SDS011;30234;48.090;11.464;2023-09-07T01:43:28;5.68;;;3.28;;
27778;SDS011;30234;48.090;11.464;2023-09-07T01:47:29;4.00;;;3.25;;
27778;SDS011;30234;48.090;11.464;2023-09-07T01:51:30;4.55;;;2.75;;
27778;SDS011;30234;48.090;11.464;2023-09-07T01:55:31;3.80;;;3.05;;
27778;SDS011;30234;48.090;11.464;2023-09-07T01:59:42;2.90;;;2.60;;
27778;SDS011;30234;48.090;11.464;2023-09-07T02:03:43;4.20;;;3.00;;
27778;SDS011;30234;48.090;11.464;2023-09-07T02:07:47;3.95;;;2.97;;
27778;SDS011;30234;48.090;11.464;2023-09-07T02:11:50;3.55;;;3.25;;
27778;SDS011;30234;48.090;11.464;2023-09-07T02:15:51;3.10;;;2.50;;
27778;SDS011;30234;48.090;11.464;2023-09-07T02:19:52;3.67;;;3.05;;
27778;SDS011;30234;48.090;11.464;2023-09-07T02:23:53;3.97;;;3.38;;
27778;SDS011;30234;48.090;11.464;2023-09-07T02:27:54;5.30;;;3.58;;
27778;SDS011;30234;48.090;11.464;2023-09-07T02:31:55;4.30;;;3.90;;
27778;SDS011;30234;48.090;11.464;2023-09-07T02:36:45;4.50;;;3.33;;
27778;SDS011;30234;48.090;11.464;2023-09-07T02:40:46;4.63;;;3.00;;
27778;SDS011;30234;48.090;11.464;2023-09-07T02:44:48;3.53;;;2.85;;
27778;SDS011;30234;48.090;11.464;2023-09-07T02:48:48;3.35;;;3.05;;
27778;SDS011;30234;48.090;11.464;2023-09-07T02:52:49;3.25;;;2.67;;
27778;SDS011;30234;48.090;11.464;2023-09-07T02:56:50;3.55;;;3.05;;
27778;SDS011;30234;48.090;11.464;2023-09-07T03:00:51;7.88;;;2.70;;
27778;SDS011;30234;48.090;11.464;2023-09-07T03:04:53;8.15;;;3.22;;
27778;SDS011;30234;48.090;11.464;2023-09-07T03:08:55;5.25;;;2.90;;
27778;SDS011;30234;48.090;11.464;2023-09-07T03:12:57;3.58;;;2.88;;
27778;SDS011;30234;48.090;11.464;2023-09-07T03:16:58;3.72;;;2.70;;
27778;SDS011;30234;48.090;11.464;2023-09-07T03:20:59;3.50;;;3.03;;
27778;SDS011;30234;48.090;11.464;2023-09-07T03:25:01;4.00;;;3.15;;
27778;SDS011;30234;48.090;11.464;2023-09-07T03:29:03;3.60;;;3.08;;
27778;SDS011;30234;48.090;11.464;2023-09-07T03:33:04;4.07;;;3.42;;
27778;SDS011;30234;48.090;11.464;2023-09-07T03:37:11;5.90;;;3.38;;
27778;SDS011;30234;48.090;11.464;2023-09-07T03:41:12;4.80;;;2.97;;
27778;SDS011;30234;48.090;11.464;2023-09-07T03:45:13;4.10;;;3.40;;
27778;SDS011;30234;48.090;11.464;2023-09-07T03:49:14;3.53;;;3.08;;
27778;SDS011;30234;48.090;11.464;2023-09-07T03:53:15;3.15;;;2.85;;
27778;SDS011;30234;48.090;11.464;2023-09-07T03:57:17;5.35;;;3.72;;
27778;SDS011;30234;48.090;11.464;2023-09-07T04:01:19;6.13;;;3.30;;
27778;SDS011;30234;48.090;11.464;2023-09-07T04:05:21;6.03;;;3.70;;
27778;SDS011;30234;48.090;11.464;2023-09-07T04:09:22;6.22;;;3.67;;
27778;SDS011;30234;48.090;11.464;2023-09-07T04:13:23;5.97;;;3.78;;
27778;SDS011;30234;48.090;11.464;2023-09-07T04:17:24;3.78;;;3.35;;
27778;SDS011;30234;48.090;11.464;2023-09-07T04:21:25;4.18;;;3.45;;
27778;SDS011;30234;48.090;11.464;2023-09-07T04:25:26;10.05;;;3.40;;
27778;SDS011;30234;48.090;11.464;2023-09-07T04:29:27;4.95;;;3.60;;
27778;SDS011;30234;48.090;11.464;2023-09-07T04:33:32;8.90;;;3.35;;
27778;SDS011;30234;48.090;11.464;2023-09-07T04:37:41;7.90;;;3.95;;
27778;SDS011;30234;48.090;11.464;2023-09-07T04:41:51;3.35;;;3.05;;
27778;SDS011;30234;48.090;11.464;2023-09-07T04:45:52;5.28;;;3.63;;
27778;SDS011;30234;48.090;11.464;2023-09-07T04:49:53;4.70;;;3.30;;
27778;SDS011;30234;48.090;11.464;2023-09-07T04:53:54;4.68;;;3.38;;
27778;SDS011;30234;48.090;11.464;2023-09-07T04:57:55;4.32;;;3.55;;
27778;SDS011;30234;48.090;11.464;2023-09-07T05:01:58;6.85;;;3.97;;
27778;SDS011;30234;48.090;11.464;2023-09-07T05:06:03;9.30;;;4.18;;
27778;SDS011;30234;48.090;11.464;2023-09-07T05:10:05;6.28;;;3.15;;
27778;SDS011;30234;48.090;11.464;2023-09-07T05:14:08;4.97;;;3.78;;
27778;SDS011;30234;48.090;11.464;2023-09-07T05:18:09;8.05;;;3.70;;
27778;SDS011;30234;48.090;11.464;2023-09-07T05:27:53;8.52;;;3.22;;
27778;SDS011;30234;48.090;11.464;2023-09-07T05:31:54;6.90;;;3.00;;
27778;SDS011;30234;48.090;11.464;2023-09-07T05:35:55;6.20;;;2.17;;
27778;SDS011;30234;48.090;11.464;2023-09-07T05:39:56;4.55;;;2.47;;
27778;SDS011;30234;48.090;11.464;2023-09-07T05:43:57;2.88;;;2.55;;
27778;SDS011;30234;48.090;11.464;2023-09-07T05:47:58;7.88;;;2.70;;
27778;SDS011;30234;48.090;11.464;2023-09-07T05:52:02;2.80;;;2.45;;
27778;SDS011;30234;48.090;11.464;2023-09-07T05:56:04;4.75;;;2.65;;
27778;SDS011;30234;48.090;11.464;2023-09-07T06:00:05;3.85;;;2.67;;
27778;SDS011;30234;48.090;11.464;2023-09-07T06:04:42;5.07;;;3.10;;
27778;SDS011;30234;48.090;11.464;2023-09-07T06:08:43;7.90;;;3.63;;
27778;SDS011;30234;48.090;11.464;2023-09-07T06:12:44;4.57;;;3.03;;
27778;SDS011;30234;48.090;11.464;2023-09-07T06:16:45;12.40;;;3.40;;
27778;SDS011;30234;48.090;11.464;2023-09-07T06:20:46;8.30;;;3.53;;
27778;SDS011;30234;48.090;11.464;2023-09-07T06:24:47;11.23;;;3.60;;
27778;SDS011;30234;48.090;11.464;2023-09-07T06:28:49;10.32;;;4.93;;
27778;SDS011;30234;48.090;11.464;2023-09-07T06:32:50;8.82;;;4.93;;
27778;SDS011;30234;48.090;11.464;2023-09-07T06:36:52;6.90;;;4.18;;
27778;SDS011;30234;48.090;11.464;2023-09-07T06:40:53;11.68;;;4.60;;
27778;SDS011;30234;48.090;11.464;2023-09-07T06:44:54;7.25;;;4.43;;
27778;SDS011;30234;48.090;11.464;2023-09-07T06:48:55;7.07;;;4.25;;
27778;SDS011;30234;48.090;11.464;2023-09-07T06:52:55;5.28;;;4.25;;
27778;SDS011;30234;48.090;11.464;2023-09-07T06:56:56;6.72;;;4.82;;
27778;SDS011;30234;48.090;11.464;2023-09-07T07:00:58;9.07;;;5.50;;
27778;SDS011;30234;48.090;11.464;2023-09-07T07:04:59;5.93;;;5.00;;
27778;SDS011;30234;48.090;11.464;2023-09-07T07:09:01;8.15;;;5.32;;
27778;SDS011;30234;48.090;11.464;2023-09-07T07:13:02;6.25;;;5.22;;
27778;SDS011;30234;48.090;11.464;2023-09-07T07:17:03;8.07;;;5.50;;
27778;SDS011;30234;48.090;11.464;2023-09-07T07:21:05;9.82;;;4.90;;
27778;SDS011;30234;48.090;11.464;2023-09-07T07:25:06;5.65;;;5.07;;
27778;SDS011;30234;48.090;11.464;2023-09-07T07:29:07;9.60;;;5.68;;
27778;SDS011;30234;48.090;11.464;2023-09-07T07:33:08;9.27;;;5.28;;
27778;SDS011;30234;48.090;11.464;2023-09-07T07:37:11;8.30;;;5.68;;
27778;SDS011;30234;48.090;11.464;2023-09-07T07:41:12;6.22;;;4.97;;
27778;SDS011;30234;48.090;11.464;2023-09-07T07:45:14;6.05;;;5.07;;
27778;SDS011;30234;48.090;11.464;2023-09-07T07:49:19;5.40;;;4.90;;
27778;SDS011;30234;48.090;11.464;2023-09-07T07:53:20;9.98;;;5.32;;
27778;SDS011;30234;48.090;11.464;2023-09-07T07:57:21;11.57;;;5.40;;
27778;SDS011;30234;48.090;11.464;2023-09-07T08:01:22;5.10;;;4.60;;
27778;SDS011;30234;48.090;11.464;2023-09-07T08:05:23;6.22;;;4.80;;
27778;SDS011;30234;48.090;11.464;2023-09-07T08:09:24;9.95;;;5.20;;
27778;SDS011;30234;48.090;11.464;2023-09-07T08:13:25;6.32;;;5.18;;
27778;SDS011;30234;48.090;11.464;2023-09-07T08:17:26;8.10;;;4.63;;
27778;SDS011;30234;48.090;11.464;2023-09-07T08:21:27;5.63;;;5.00;;
27778;SDS011;30234;48.090;11.464;2023-09-07T08:25:27;6.80;;;5.22;;
27778;SDS011;30234;48.090;11.464;2023-09-07T08:29:28;5.68;;;4.72;;
27778;SDS011;30234;48.090;11.464;2023-09-07T08:33:32;6.65;;;4.45;;
27778;SDS011;30234;48.090;11.464;2023-09-07T08:37:40;6.75;;;4.75;;
27778;SDS011;30234;48.090;11.464;2023-09-07T08:41:41;6.88;;;4.85;;
27778;SDS011;30234;48.090;11.464;2023-09-07T08:45:46;6.05;;;5.05;;
27778;SDS011;30234;48.090;11.464;2023-09-07T08:49:58;6.30;;;5.15;;
27778;SDS011;30234;48.090;11.464;2023-09-07T08:54:00;8.13;;;4.45;;
27778;SDS011;30234;48.090;11.464;2023-09-07T08:58:01;5.75;;;4.85;;
27778;SDS011;30234;48.090;11.464;2023-09-07T09:02:02;6.03;;;4.13;;
27778;SDS011;30234;48.090;11.464;2023-09-07T09:06:05;5.97;;;4.63;;
27778;SDS011;30234;48.090;11.464;2023-09-07T09:10:07;27.23;;;8.27;;
27778;SDS011;30234;48.090;11.464;2023-09-07T09:14:09;15.68;;;5.22;;
27778;SDS011;30234;48.090;11.464;2023-09-07T09:18:10;6.05;;;4.45;;
27778;SDS011;30234;48.090;11.464;2023-09-07T09:22:13;7.18;;;4.15;;
27778;SDS011;30234;48.090;11.464;2023-09-07T09:26:14;8.20;;;4.72;;
27778;SDS011;30234;48.090;11.464;2023-09-07T09:30:15;6.00;;;5.40;;
27778;SDS011;30234;48.090;11.464;2023-09-07T09:34:17;6.15;;;4.40;;
27778;SDS011;30234;48.090;11.464;2023-09-07T09:38:19;6.05;;;4.03;;
27778;SDS011;30234;48.090;11.464;2023-09-07T09:42:20;7.43;;;4.30;;
27778;SDS011;30234;48.090;11.464;2023-09-07T09:46:22;13.50;;;4.60;;
27778;SDS011;30234;48.090;11.464;2023-09-07T09:50:25;5.55;;;4.68;;
27778;SDS011;30234;48.090;11.464;2023-09-07T09:54:26;5.15;;;4.45;;
27778;SDS011;30234;48.090;11.464;2023-09-07T09:58:29;9.00;;;4.28;;
27778;SDS011;30234;48.090;11.464;2023-09-07T10:02:29;5.15;;;4.28;;
27778;SDS011;30234;48.090;11.464;2023-09-07T10:06:30;4.60;;;3.95;;
27778;SDS011;30234;48.090;11.464;2023-09-07T10:10:33;6.68;;;4.15;;
27778;SDS011;30234;48.090;11.464;2023-09-07T10:14:39;5.95;;;4.47;;
27778;SDS011;30234;48.090;11.464;2023-09-07T10:18:41;6.72;;;4.78;;
27778;SDS011;30234;48.090;11.464;2023-09-07T10:22:44;6.88;;;5.00;;
27778;SDS011;30234;48.090;11.464;2023-09-07T10:26:45;10.23;;;4.57;;
27778;SDS011;30234;48.090;11.464;2023-09-07T10:31:07;6.82;;;4.60;;
27778;SDS011;30234;48.090;11.464;2023-09-07T10:35:20;5.43;;;4.50;;
27778;SDS011;30234;48.090;11.464;2023-09-07T10:39:22;4.72;;;4.10;;
27778;SDS011;30234;48.090;11.464;2023-09-07T10:43:26;5.60;;;4.80;;
27778;SDS011;30234;48.090;11.464;2023-09-07T10:47:33;7.78;;;4.63;;
27778;SDS011;30234;48.090;11.464;2023-09-07T10:51:39;7.53;;;4.60;;
27778;SDS011;30234;48.090;11.464;2023-09-07T10:55:42;6.20;;;4.45;;
27778;SDS011;30234;48.090;11.464;2023-09-07T10:59:46;6.90;;;4.70;;
27778;SDS011;30234;48.090;11.464;2023-09-07T11:03:47;8.30;;;4.32;;
27778;SDS011;30234;48.090;11.464;2023-09-07T11:07:48;6.38;;;4.68;;
27778;SDS011;30234;48.090;11.464;2023-09-07T11:11:49;7.97;;;5.18;;
27778;SDS011;30234;48.090;11.464;2023-09-07T11:15:52;6.93;;;4.50;;
27778;SDS011;30234;48.090;11.464;2023-09-07T11:19:55;6.40;;;4.30;;
27778;SDS011;30234;48.090;11.464;2023-09-07T11:23:56;8.00;;;3.83;;
27778;SDS011;30234;48.090;11.464;2023-09-07T11:27:57;6.10;;;4.32;;
27778;SDS011;30234;48.090;11.464;2023-09-07T11:32:08;7.28;;;4.55;;
27778;SDS011;30234;48.090;11.464;2023-09-07T11:36:10;7.18;;;4.80;;
27778;SDS011;30234;48.090;11.464;2023-09-07T11:40:11;6.57;;;4.65;;
27778;SDS011;30234;48.090;11.464;2023-09-07T11:44:12;5.05;;;4.07;;
27778;SDS011;30234;48.090;11.464;2023-09-07T11:48:13;8.90;;;4.20;;
27778;SDS011;30234;48.090;11.464;2023-09-07T11:52:15;5.60;;;3.70;;
27778;SDS011;30234;48.090;11.464;2023-09-07T11:56:15;8.02;;;4.35;;
27778;SDS011;30234;48.090;11.464;2023-09-07T12:00:16;4.68;;;4.28;;
27778;SDS011;30234;48.090;11.464;2023-09-07T12:04:18;5.97;;;4.05;;
27778;SDS011;30234;48.090;11.464;2023-09-07T12:08:19;5.20;;;3.72;;
27778;SDS011;30234;48.090;11.464;2023-09-07T12:12:19;4.25;;;3.85;;
27778;SDS011;30234;48.090;11.464;2023-09-07T12:16:20;3.88;;;3.47;;
27778;SDS011;30234;48.090;11.464;2023-09-07T12:20:21;6.88;;;4.18;;
27778;SDS011;30234;48.090;11.464;2023-09-07T12:24:22;8.38;;;4.55;;
27778;SDS011;30234;48.090;11.464;2023-09-07T12:28:23;24.52;;;5.97;;
27778;SDS011;30234;48.090;11.464;2023-09-07T12:32:24;9.18;;;4.30;;
27778;SDS011;30234;48.090;11.464;2023-09-07T12:36:25;11.38;;;4.45;;
27778;SDS011;30234;48.090;11.464;2023-09-07T12:40:29;7.85;;;3.92;;
27778;SDS011;30234;48.090;11.464;2023-09-07T12:44:30;10.95;;;3.67;;
27778;SDS011;30234;48.090;11.464;2023-09-07T12:48:32;8.60;;;4.28;;
27778;SDS011;30234;48.090;11.464;2023-09-07T12:52:33;4.15;;;3.78;;
27778;SDS011;30234;48.090;11.464;2023-09-07T12:56:37;10.43;;;4.25;;
27778;SDS011;30234;48.090;11.464;2023-09-07T13:00:38;7.85;;;4.03;;
27778;SDS011;30234;48.090;11.464;2023-09-07T13:04:39;5.88;;;3.92;;
27778;SDS011;30234;48.090;11.464;2023-09-07T13:08:40;3.95;;;3.58;;
27778;SDS011;30234;48.090;11.464;2023-09-07T13:12:41;5.72;;;3.03;;
27778;SDS011;30234;48.090;11.464;2023-09-07T13:16:42;9.18;;;4.60;;
27778;SDS011;30234;48.090;11.464;2023-09-07T13:20:44;6.15;;;4.05;;
27778;SDS011;30234;48.090;11.464;2023-09-07T13:24:45;5.28;;;3.78;;
27778;SDS011;30234;48.090;11.464;2023-09-07T13:28:46;7.50;;;4.13;;
27778;SDS011;30234;48.090;11.464;2023-09-07T13:32:47;6.93;;;3.80;;
27778;SDS011;30234;48.090;11.464;2023-09-07T13:36:50;4.82;;;3.50;;
27778;SDS011;30234;48.090;11.464;2023-09-07T13:40:50;4.25;;;3.83;;
27778;SDS011;30234;48.090;11.464;2023-09-07T13:44:51;12.63;;;3.60;;
27778;SDS011;30234;48.090;11.464;2023-09-07T13:48:52;4.38;;;3.17;;
27778;SDS011;30234;48.090;11.464;2023-09-07T13:52:54;7.13;;;4.00;;
27778;SDS011;30234;48.090;11.464;2023-09-07T13:56:55;6.70;;;4.57;;
27778;SDS011;30234;48.090;11.464;2023-09-07T14:00:56;5.00;;;3.72;;
27778;SDS011;30234;48.090;11.464;2023-09-07T14:04:57;4.80;;;3.47;;
27778;SDS011;30234;48.090;11.464;2023-09-07T14:08:58;5.72;;;3.42;;
27778;SDS011;30234;48.090;11.464;2023-09-07T14:12:59;3.75;;;3.13;;
27778;SDS011;30234;48.090;11.464;2023-09-07T14:16:59;4.93;;;3.05;;
27778;SDS011;30234;48.090;11.464;2023-09-07T14:21:00;8.00;;;3.78;;
27778;SDS011;30234;48.090;11.464;2023-09-07T14:25:01;8.35;;;4.07;;
27778;SDS011;30234;48.090;11.464;2023-09-07T14:29:03;4.97;;;3.58;;
27778;SDS011;30234;48.090;11.464;2023-09-07T14:33:05;4.07;;;2.95;;
27778;SDS011;30234;48.090;11.464;2023-09-07T14:37:06;7.38;;;3.85;;
27778;SDS011;30234;48.090;11.464;2023-09-07T14:41:07;10.55;;;3.67;;
27778;SDS011;30234;48.090;11.464;2023-09-07T14:45:12;5.53;;;3.60;;
27778;SDS011;30234;48.090;11.464;2023-09-07T14:49:13;6.65;;;3.60;;
27778;SDS011;30234;48.090;11.464;2023-09-07T14:53:14;6.07;;;3.13;;
27778;SDS011;30234;48.090;11.464;2023-09-07T14:57:14;7.13;;;3.40;;
27778;SDS011;30234;48.090;11.464;2023-09-07T15:01:15;5.97;;;3.15;;
27778;SDS011;30234;48.090;11.464;2023-09-07T15:05:16;5.72;;;3.30;;
27778;SDS011;30234;48.090;11.464;2023-09-07T15:09:17;13.68;;;4.03;;
27778;SDS011;30234;48.090;11.464;2023-09-07T15:13:18;5.45;;;3.45;;
27778;SDS011;30234;48.090;11.464;2023-09-07T15:17:20;5.35;;;3.20;;
27778;SDS011;30234;48.090;11.464;2023-09-07T15:21:21;5.15;;;3.55;;
27778;SDS011;30234;48.090;11.464;2023-09-07T15:25:22;4.82;;;3.22;;
27778;SDS011;30234;48.090;11.464;2023-09-07T15:29:23;5.28;;;3.20;;
27778;SDS011;30234;48.090;11.464;2023-09-07T15:33:24;5.72;;;3.50;;
27778;SDS011;30234;48.090;11.464;2023-09-07T15:37:25;4.03;;;3.28;;
27778;SDS011;30234;48.090;11.464;2023-09-07T15:41:27;3.45;;;2.83;;
27778;SDS011;30234;48.090;11.464;2023-09-07T15:45:28;4.10;;;3.05;;
27778;SDS011;30234;48.090;11.464;2023-09-07T15:49:29;4.38;;;3.47;;
27778;SDS011;30234;48.090;11.464;2023-09-07T15:53:33;6.53;;;3.28;;
27778;SDS011;30234;48.090;11.464;2023-09-07T15:57:34;4.28;;;3.10;;
27778;SDS011;30234;48.090;11.464;2023-09-07T16:01:35;5.32;;;3.10;;
27778;SDS011;30234;48.090;11.464;2023-09-07T16:05:36;3.63;;;3.08;;
27778;SDS011;30234;48.090;11.464;2023-09-07T16:09:37;5.57;;;3.00;;
27778;SDS011;30234;48.090;11.464;2023-09-07T16:13:38;5.13;;;3.58;;
27778;SDS011;30234;48.090;11.464;2023-09-07T16:17:40;4.82;;;3.15;;
27778;SDS011;30234;48.090;11.464;2023-09-07T16:21:42;3.33;;;2.70;;
27778;SDS011;30234;48.090;11.464;2023-09-07T16:25:43;4.93;;;3.25;;
27778;SDS011;30234;48.090;11.464;2023-09-07T16:29:46;4.63;;;3.88;;
27778;SDS011;30234;48.090;11.464;2023-09-07T16:33:49;4.30;;;3.30;;
27778;SDS011;30234;48.090;11.464;2023-09-07T16:37:51;4.68;;;3.05;;
27778;SDS011;30234;48.090;11.464;2023-09-07T16:41:51;4.40;;;3.40;;
27778;SDS011;30234;48.090;11.464;2023-09-07T16:45:59;5.78;;;3.55;;
27778;SDS011;30234;48.090;11.464;2023-09-07T16:50:01;3.53;;;3.20;;
27778;SDS011;30234;48.090;11.464;2023-09-07T16:54:03;5.35;;;3.15;;
27778;SDS011;30234;48.090;11.464;2023-09-07T16:58:04;7.47;;;3.40;;
27778;SDS011;30234;48.090;11.464;2023-09-07T17:02:05;6.78;;;3.15;;
27778;SDS011;30234;48.090;11.464;2023-09-07T17:06:06;4.47;;;3.42;;
27778;SDS011;30234;48.090;11.464;2023-09-07T17:10:07;4.43;;;3.65;;
27778;SDS011;30234;48.090;11.464;2023-09-07T17:14:08;5.22;;;3.92;;
27778;SDS011;30234;48.090;11.464;2023-09-07T17:18:09;3.85;;;3.38;;
27778;SDS011;30234;48.090;11.464;2023-09-07T17:22:10;4.88;;;3.42;;
27778;SDS011;30234;48.090;11.464;2023-09-07T17:26:13;4.50;;;3.88;;
27778;SDS011;30234;48.090;11.464;2023-09-07T17:30:14;5.03;;;3.80;;
27778;SDS011;30234;48.090;11.464;2023-09-07T17:34:15;4.97;;;3.33;;
27778;SDS011;30234;48.090;11.464;2023-09-07T17:38:16;4.60;;;3.20;;
27778;SDS011;30234;48.090;11.464;2023-09-07T17:42:20;4.25;;;3.50;;
27778;SDS011;30234;48.090;11.464;2023-09-07T17:46:21;8.48;;;4.03;;
27778;SDS011;30234;48.090;11.464;2023-09-07T17:50:22;4.57;;;3.55;;
27778;SDS011;30234;48.090;11.464;2023-09-07T17:54:23;4.93;;;3.63;;
27778;SDS011;30234;48.090;11.464;2023-09-07T17:58:25;4.88;;;3.63;;
27778;SDS011;30234;48.090;11.464;2023-09-07T18:02:27;7.15;;;3.60;;
27778;SDS011;30234;48.090;11.464;2023-09-07T18:06:30;6.00;;;4.07;;
27778;SDS011;30234;48.090;11.464;2023-09-07T18:10:33;4.50;;;3.67;;
27778;SDS011;30234;48.090;11.464;2023-09-07T18:14:34;5.53;;;3.33;;
27778;SDS011;30234;48.090;11.464;2023-09-07T18:18:35;10.32;;;3.63;;
27778;SDS011;30234;48.090;11.464;2023-09-07T18:22:37;5.40;;;3.60;;
27778;SDS011;30234;48.090;11.464;2023-09-07T18:26:38;7.88;;;3.72;;
27778;SDS011;30234;48.090;11.464;2023-09-07T18:30:40;5.68;;;3.58;;
27778;SDS011;30234;48.090;11.464;2023-09-07T18:34:41;7.97;;;3.85;;
27778;SDS011;30234;48.090;11.464;2023-09-07T18:38:42;8.60;;;4.72;;
27778;SDS011;30234;48.090;11.464;2023-09-07T18:42:43;6.20;;;4.38;;
27778;SDS011;30234;48.090;11.464;2023-09-07T18:46:44;7.90;;;4.45;;
27778;SDS011;30234;48.090;11.464;2023-09-07T18:50:45;5.43;;;4.32;;
27778;SDS011;30234;48.090;11.464;2023-09-07T18:54:47;4.90;;;4.07;;
27778;SDS011;30234;48.090;11.464;2023-09-07T18:58:48;4.88;;;3.95;;
27778;SDS011;30234;48.090;11.464;2023-09-07T19:02:49;7.13;;;4.47;;
27778;SDS011;30234;48.090;11.464;2023-09-07T19:06:50;5.95;;;4.18;;
27778;SDS011;30234;48.090;11.464;2023-09-07T19:10:51;8.63;;;4.68;;
27778;SDS011;30234;48.090;11.464;2023-09-07T19:14:52;9.23;;;3.88;;
27778;SDS011;30234;48.090;11.464;2023-09-07T19:18:53;5.55;;;4.45;;
27778;SDS011;30234;48.090;11.464;2023-09-07T19:22:54;5.53;;;4.43;;
27778;SDS011;30234;48.090;11.464;2023-09-07T19:26:55;7.50;;;4.53;;
27778;SDS011;30234;48.090;11.464;2023-09-07T19:30:56;6.57;;;4.75;;
27778;SDS011;30234;48.090;11.464;2023-09-07T19:34:57;7.85;;;5.32;;
27778;SDS011;30234;48.090;11.464;2023-09-07T19:38:59;8.65;;;4.45;;
27778;SDS011;30234;48.090;11.464;2023-09-07T19:43:00;5.60;;;4.40;;
27778;SDS011;30234;48.090;11.464;2023-09-07T19:47:01;7.40;;;4.45;;
27778;SDS011;30234;48.090;11.464;2023-09-07T19:51:14;9.38;;;4.93;;
27778;SDS011;30234;48.090;11.464;2023-09-07T19:55:17;8.95;;;5.20;;
27778;SDS011;30234;48.090;11.464;2023-09-07T19:59:18;6.13;;;4.05;;
27778;SDS011;30234;48.090;11.464;2023-09-07T20:03:19;6.57;;;4.55;;
27778;SDS011;30234;48.090;11.464;2023-09-07T20:07:20;6.60;;;4.38;;
27778;SDS011;30234;48.090;11.464;2023-09-07T20:11:21;7.68;;;4.65;;
27778;SDS011;30234;48.090;11.464;2023-09-07T20:15:22;6.40;;;5.05;;
27778;SDS011;30234;48.090;11.464;2023-09-07T20:19:23;5.50;;;4.43;;
27778;SDS011;30234;48.090;11.464;2023-09-07T20:23:24;7.85;;;4.45;;
27778;SDS011;30234;48.090;11.464;2023-09-07T20:27:25;7.07;;;4.35;;
27778;SDS011;30234;48.090;11.464;2023-09-07T20:31:26;5.47;;;4.75;;
27778;SDS011;30234;48.090;11.464;2023-09-07T20:35:27;8.85;;;5.25;;
27778;SDS011;30234;48.090;11.464;2023-09-07T20:39:31;6.95;;;4.95;;
27778;SDS011;30234;48.090;11.464;2023-09-07T20:43:32;9.20;;;4.90;;
27778;SDS011;30234;48.090;11.464;2023-09-07T20:47:33;6.03;;;5.35;;
27778;SDS011;30234;48.090;11.464;2023-09-07T20:51:34;8.30;;;5.20;;
27778;SDS011;30234;48.090;11.464;2023-09-07T20:55:36;7.40;;;4.82;;
27778;SDS011;30234;48.090;11.464;2023-09-07T20:59:37;6.47;;;5.47;;
27778;SDS011;30234;48.090;11.464;2023-09-07T21:03:38;5.40;;;4.70;;
27778;SDS011;30234;48.090;11.464;2023-09-07T21:07:39;6.65;;;4.93;;
27778;SDS011;30234;48.090;11.464;2023-09-07T21:11:40;9.48;;;4.45;;
27778;SDS011;30234;48.090;11.464;2023-09-07T21:15:44;12.90;;;4.70;;
27778;SDS011;30234;48.090;11.464;2023-09-07T21:19:45;5.65;;;4.57;;
27778;SDS011;30234;48.090;11.464;2023-09-07T21:23:48;8.07;;;4.60;;
27778;SDS011;30234;48.090;11.464;2023-09-07T21:27:49;8.05;;;4.47;;
27778;SDS011;30234;48.090;11.464;2023-09-07T21:31:50;6.88;;;5.82;;
27778;SDS011;30234;48.090;11.464;2023-09-07T21:35:51;7.78;;;5.82;;
27778;SDS011;30234;48.090;11.464;2023-09-07T21:39:52;9.82;;;5.80;;
27778;SDS011;30234;48.090;11.464;2023-09-07T21:43:53;5.95;;;4.95;;
27778;SDS011;30234;48.090;11.464;2023-09-07T21:47:54;5.78;;;4.80;;
27778;SDS011;30234;48.090;11.464;2023-09-07T21:51:55;6.40;;;5.15;;
27778;SDS011;30234;48.090;11.464;2023-09-07T21:55:55;7.28;;;5.40;;
27778;SDS011;30234;48.090;11.464;2023-09-07T21:59:56;6.03;;;4.82;;
27778;SDS011;30234;48.090;11.464;2023-09-07T22:03:57;12.20;;;5.47;;
27778;SDS011;30234;48.090;11.464;2023-09-07T22:07:58;6.60;;;5.13;;
27778;SDS011;30234;48.090;11.464;2023-09-07T22:11:59;7.57;;;5.25;;
27778;SDS011;30234;48.090;11.464;2023-09-07T22:16:00;7.72;;;5.30;;
27778;SDS011;30234;48.090;11.464;2023-09-07T22:20:01;7.05;;;4.57;;
27778;SDS011;30234;48.090;11.464;2023-09-07T22:24:04;12.95;;;4.90;;
27778;SDS011;30234;48.090;11.464;2023-09-07T22:28:05;6.75;;;4.78;;
27778;SDS011;30234;48.090;11.464;2023-09-07T22:32:06;6.00;;;4.38;;
27778;SDS011;30234;48.090;11.464;2023-09-07T22:36:07;6.60;;;4.65;;
27778;SDS011;30234;48.090;11.464;2023-09-07T22:40:08;5.20;;;4.38;;
27778;SDS011;30234;48.090;11.464;2023-09-07T22:44:15;6.95;;;5.00;;
27778;SDS011;30234;48.090;11.464;2023-09-07T22:48:16;5.65;;;4.28;;
27778;SDS011;30234;48.090;11.464;2023-09-07T22:52:17;8.68;;;4.78;;
27778;SDS011;30234;48.090;11.464;2023-09-07T22:56:18;8.90;;;4.93;;
27778;SDS011;30234;48.090;11.464;2023-09-07T23:00:19;6.60;;;4.97;;
27778;SDS011;30234;48.090;11.464;2023-09-07T23:04:20;10.52;;;5.30;;
27778;SDS011;30234;48.090;11.464;2023-09-07T23:08:21;5.93;;;4.78;;
27778;SDS011;30234;48.090;11.464;2023-09-07T23:12:22;8.38;;;5.00;;
27778;SDS011;30234;48.090;11.464;2023-09-07T23:16:24;6.30;;;4.75;;
27778;SDS011;30234;48.090;11.464;2023-09-07T23:20:25;7.13;;;4.78;;
27778;SDS011;30234;48.090;11.464;2023-09-07T23:24:26;9.32;;;4.95;;
27778;SDS011;30234;48.090;11.464;2023-09-07T23:28:28;6.60;;;4.72;;
27778;SDS011;30234;48.090;11.464;2023-09-07T23:32:29;6.90;;;4.72;;
27778;SDS011;30234;48.090;11.464;2023-09-07T23:36:30;5.90;;;4.70;;
27778;SDS011;30234;48.090;11.464;2023-09-07T23:40:31;5.53;;;4.45;;
27778;SDS011;30234;48.090;11.464;2023-09-07T23:44:32;8.77;;;4.50;;
27778;SDS011;30234;48.090;11.464;2023-09-07T23:48:32;9.15;;;5.22;;
27778;SDS011;30234;48.090;11.464;2023-09-07T23:52:33;5.88;;;4.22;;
27778;SDS011;30234;48.090;11.464;2023-09-07T23:56:34;7.03;;;4.50;;
